sensor_id;sensor_type;location;lat;lon;timestamp;pressure;altitude;pressure_sealevel;temperature;humidity
50684;BME280;36654;45.042;38.994;2022-12-10T00:01:08;101631.66;;;7.28;77.63
50684;BME280;36654;45.042;38.994;2022-12-10T00:03:34;101618.25;;;7.22;77.58
50684;BME280;36654;45.042;38.994;2022-12-10T00:06:02;101627.25;;;7.27;77.38
50684;BME280;36654;45.042;38.994;2022-12-10T00:08:28;101627.94;;;7.23;77.45
50684;BME280;36654;45.042;38.994;2022-12-10T00:10:53;101632.38;;;7.24;77.36
50684;BME280;36654;45.042;38.994;2022-12-10T00:13:19;101639.38;;;7.23;77.34
50684;BME280;36654;45.042;38.994;2022-12-10T00:15:45;101638.59;;;7.26;77.41
50684;BME280;36654;45.042;38.994;2022-12-10T00:18:10;101643.88;;;7.26;77.37
50684;BME280;36654;45.042;38.994;2022-12-10T00:20:37;101638.50;;;7.23;77.56
50684;BME280;36654;45.042;38.994;2022-12-10T00:23:03;101616.44;;;7.21;77.67
50684;BME280;36654;45.042;38.994;2022-12-10T00:25:28;101630.09;;;7.33;77.61
50684;BME280;36654;45.042;38.994;2022-12-10T00:27:54;101630.09;;;7.33;77.76
50684;BME280;36654;45.042;38.994;2022-12-10T00:30:20;101633.69;;;7.35;77.62
50684;BME280;36654;45.042;38.994;2022-12-10T00:32:45;101573.75;;;7.08;77.42
50684;BME280;36654;45.042;38.994;2022-12-10T00:35:11;101628.19;;;7.29;77.51
50684;BME280;36654;45.042;38.994;2022-12-10T00:37:37;101627.53;;;7.34;77.38
50684;BME280;36654;45.042;38.994;2022-12-10T00:40:03;101617.75;;;7.32;77.35
50684;BME280;36654;45.042;38.994;2022-12-10T00:42:29;101597.97;;;7.21;77.38
50684;BME280;36654;45.042;38.994;2022-12-10T00:44:55;101609.97;;;7.35;77.65
50684;BME280;36654;45.042;38.994;2022-12-10T00:47:20;101617.19;;;7.41;77.54
50684;BME280;36654;45.042;38.994;2022-12-10T00:49:46;101612.00;;;7.42;77.61
50684;BME280;36654;45.042;38.994;2022-12-10T00:52:11;101596.09;;;7.41;77.48
50684;BME280;36654;45.042;38.994;2022-12-10T00:54:37;101611.28;;;7.46;77.44
50684;BME280;36654;45.042;38.994;2022-12-10T00:57:03;101611.13;;;7.43;77.75
50684;BME280;36654;45.042;38.994;2022-12-10T00:59:28;101604.19;;;7.45;77.60
50684;BME280;36654;45.042;38.994;2022-12-10T01:01:54;101611.38;;;7.49;77.43
50684;BME280;36654;45.042;38.994;2022-12-10T01:04:20;101565.72;;;7.28;77.46
50684;BME280;36654;45.042;38.994;2022-12-10T01:06:53;101610.63;;;7.53;77.43
50684;BME280;36654;45.042;38.994;2022-12-10T01:09:24;101575.56;;;7.32;77.58
50684;BME280;36654;45.042;38.994;2022-12-10T01:11:51;101610.78;;;7.56;77.71
50684;BME280;36654;45.042;38.994;2022-12-10T01:14:29;101605.38;;;7.53;77.92
50684;BME280;36654;45.042;38.994;2022-12-10T01:16:58;101559.63;;;7.29;77.56
50684;BME280;36654;45.042;38.994;2022-12-10T01:19:25;101575.56;;;7.32;77.67
50684;BME280;36654;45.042;38.994;2022-12-10T01:21:55;101595.31;;;7.43;77.69
50684;BME280;36654;45.042;38.994;2022-12-10T01:24:22;101604.19;;;7.45;77.79
50684;BME280;36654;45.042;38.994;2022-12-10T01:26:48;101599.00;;;7.48;77.96
50684;BME280;36654;45.042;38.994;2022-12-10T01:29:14;101595.44;;;7.46;78.08
50684;BME280;36654;45.042;38.994;2022-12-10T01:31:40;101604.19;;;7.45;78.05
50684;BME280;36654;45.042;38.994;2022-12-10T01:34:09;101600.59;;;7.43;78.08
50684;BME280;36654;45.042;38.994;2022-12-10T01:36:38;101602.25;;;7.41;78.06
50684;BME280;36654;45.042;38.994;2022-12-10T01:39:06;101600.47;;;7.40;78.31
50684;BME280;36654;45.042;38.994;2022-12-10T01:41:40;101596.09;;;7.41;78.33
50684;BME280;36654;45.042;38.994;2022-12-10T01:46:40;101598.81;;;7.42;78.37
50684;BME280;36654;45.042;38.994;2022-12-10T01:49:10;101606.00;;;7.46;78.51
50684;BME280;36654;45.042;38.994;2022-12-10T01:51:38;101598.91;;;7.45;78.46
50684;BME280;36654;45.042;38.994;2022-12-10T01:54:06;101613.16;;;7.50;78.26
50684;BME280;36654;45.042;38.994;2022-12-10T01:56:35;101603.47;;;7.49;78.39
50684;BME280;36654;45.042;38.994;2022-12-10T01:59:01;101606.13;;;7.49;78.16
50684;BME280;36654;45.042;38.994;2022-12-10T02:01:52;101600.72;;;7.46;78.22
50684;BME280;36654;45.042;38.994;2022-12-10T02:04:32;101604.19;;;7.45;78.11
50684;BME280;36654;45.042;38.994;2022-12-10T02:07:05;101598.63;;;7.38;78.37
50684;BME280;36654;45.042;38.994;2022-12-10T02:09:38;101605.75;;;7.40;78.44
50684;BME280;36654;45.042;38.994;2022-12-10T02:12:22;101620.72;;;7.41;78.66
50684;BME280;36654;45.042;38.994;2022-12-10T02:15:01;101605.81;;;7.42;78.76
50684;BME280;36654;45.042;38.994;2022-12-10T02:20:07;101613.78;;;7.43;78.93
50684;BME280;36654;45.042;38.994;2022-12-10T02:22:39;101561.84;;;7.18;79.06
50684;BME280;36654;45.042;38.994;2022-12-10T02:25:11;101609.47;;;7.45;79.08
50684;BME280;36654;45.042;38.994;2022-12-10T02:27:59;101598.91;;;7.45;79.13
50684;BME280;36654;45.042;38.994;2022-12-10T02:30:28;101612.97;;;7.44;79.07
50684;BME280;36654;45.042;38.994;2022-12-10T02:32:58;101604.13;;;7.44;79.22
50684;BME280;36654;45.042;38.994;2022-12-10T02:35:28;101613.06;;;7.47;79.31
50684;BME280;36654;45.042;38.994;2022-12-10T02:38:16;101569.16;;;7.25;79.21
50684;BME280;36654;45.042;38.994;2022-12-10T02:40:46;101615.81;;;7.50;79.18
50684;BME280;36654;45.042;38.994;2022-12-10T02:43:14;101601.72;;;7.50;79.02
50684;BME280;36654;45.042;38.994;2022-12-10T02:45:42;101566.91;;;7.36;78.80
50684;BME280;36654;45.042;38.994;2022-12-10T02:48:09;101605.63;;;7.60;78.89
50684;BME280;36654;45.042;38.994;2022-12-10T02:50:36;101614.59;;;7.65;78.93
50684;BME280;36654;45.042;38.994;2022-12-10T02:53:02;101611.16;;;7.67;78.63
50684;BME280;36654;45.042;38.994;2022-12-10T02:55:36;101574.34;;;7.46;78.52
50684;BME280;36654;45.042;38.994;2022-12-10T03:01:06;101603.06;;;7.63;78.28
50684;BME280;36654;45.042;38.994;2022-12-10T03:03:46;101606.69;;;7.65;78.21
50684;BME280;36654;45.042;38.994;2022-12-10T03:06:38;101605.00;;;7.67;78.35
50684;BME280;36654;45.042;38.994;2022-12-10T03:09:12;101612.16;;;7.71;78.22
50684;BME280;36654;45.042;38.994;2022-12-10T03:11:41;101609.53;;;7.71;78.03
50684;BME280;36654;45.042;38.994;2022-12-10T03:14:30;101602.53;;;7.71;78.04
50684;BME280;36654;45.042;38.994;2022-12-10T03:16:58;101589.00;;;7.62;78.09
50684;BME280;36654;45.042;38.994;2022-12-10T03:19:30;101594.31;;;7.64;78.03
50684;BME280;36654;45.042;38.994;2022-12-10T03:21:58;101606.88;;;7.71;78.16
50684;BME280;36654;45.042;38.994;2022-12-10T03:24:26;101601.50;;;7.68;77.99
50684;BME280;36654;45.042;38.994;2022-12-10T03:26:52;101592.53;;;7.63;78.14
50684;BME280;36654;45.042;38.994;2022-12-10T03:29:22;101567.63;;;7.56;77.95
50684;BME280;36654;45.042;38.994;2022-12-10T03:31:51;101598.25;;;7.75;77.94
50684;BME280;36654;45.042;38.994;2022-12-10T03:34:18;101601.84;;;7.77;78.13
50684;BME280;36654;45.042;38.994;2022-12-10T03:36:44;101598.34;;;7.78;77.95
50684;BME280;36654;45.042;38.994;2022-12-10T03:39:10;101589.44;;;7.74;77.85
50684;BME280;36654;45.042;38.994;2022-12-10T03:41:36;101584.19;;;7.76;77.80
50684;BME280;36654;45.042;38.994;2022-12-10T03:44:02;101589.38;;;7.73;77.55
50684;BME280;36654;45.042;38.994;2022-12-10T03:46:29;101528.63;;;7.47;77.42
50684;BME280;36654;45.042;38.994;2022-12-10T03:48:57;101598.59;;;7.84;77.29
50684;BME280;36654;45.042;38.994;2022-12-10T03:51:22;101571.97;;;7.78;77.17
50684;BME280;36654;45.042;38.994;2022-12-10T03:53:48;101589.59;;;7.79;77.20
50684;BME280;36654;45.042;38.994;2022-12-10T03:56:15;101585.94;;;7.75;77.12
50684;BME280;36654;45.042;38.994;2022-12-10T03:58:41;101578.72;;;7.70;76.87
50684;BME280;36654;45.042;38.994;2022-12-10T04:01:07;101589.59;;;7.79;76.84
50684;BME280;36654;45.042;38.994;2022-12-10T04:03:37;101577.91;;;7.72;76.81
50684;BME280;36654;45.042;38.994;2022-12-10T04:06:06;101554.00;;;7.68;76.76
50684;BME280;36654;45.042;38.994;2022-12-10T04:08:31;101555.91;;;7.72;76.77
50684;BME280;36654;45.042;38.994;2022-12-10T04:11:09;101575.66;;;7.83;76.64
50684;BME280;36654;45.042;38.994;2022-12-10T04:13:36;101593.25;;;7.83;76.62
50684;BME280;36654;45.042;38.994;2022-12-10T04:16:22;101565.09;;;7.83;76.54
50684;BME280;36654;45.042;38.994;2022-12-10T04:19:00;101576.50;;;7.82;76.41
50684;BME280;36654;45.042;38.994;2022-12-10T04:21:27;101582.63;;;7.81;76.21
50684;BME280;36654;45.042;38.994;2022-12-10T04:24:13;101561.19;;;7.72;76.29
50684;BME280;36654;45.042;38.994;2022-12-10T04:27:00;101559.38;;;7.71;76.26
50684;BME280;36654;45.042;38.994;2022-12-10T04:29:29;101566.66;;;7.76;76.12
50684;BME280;36654;45.042;38.994;2022-12-10T04:31:56;101575.44;;;7.77;76.00
50684;BME280;36654;45.042;38.994;2022-12-10T04:34:23;101520.81;;;7.50;75.77
50684;BME280;36654;45.042;38.994;2022-12-10T04:36:49;101567.47;;;7.75;75.77
50684;BME280;36654;45.042;38.994;2022-12-10T04:39:16;101571.84;;;7.75;75.81
50684;BME280;36654;45.042;38.994;2022-12-10T04:41:44;101563.59;;;7.66;75.81
50684;BME280;36654;45.042;38.994;2022-12-10T04:44:10;101511.13;;;7.49;75.81
50684;BME280;36654;45.042;38.994;2022-12-10T04:46:36;101550.41;;;7.66;75.74
50684;BME280;36654;45.042;38.994;2022-12-10T04:49:03;101564.63;;;7.69;75.76
50684;BME280;36654;45.042;38.994;2022-12-10T04:51:29;101551.19;;;7.63;75.84
50684;BME280;36654;45.042;38.994;2022-12-10T04:53:55;101569.94;;;7.71;75.63
50684;BME280;36654;45.042;38.994;2022-12-10T04:56:20;101559.44;;;7.72;75.65
50684;BME280;36654;45.042;38.994;2022-12-10T04:58:46;101563.84;;;7.72;75.56
50684;BME280;36654;45.042;38.994;2022-12-10T05:01:12;101526.97;;;7.49;75.35
50684;BME280;36654;45.042;38.994;2022-12-10T05:03:39;101545.91;;;7.63;75.15
50684;BME280;36654;45.042;38.994;2022-12-10T05:06:08;101579.59;;;7.70;75.01
50684;BME280;36654;45.042;38.994;2022-12-10T05:08:35;101567.81;;;7.61;75.05
50684;BME280;36654;45.042;38.994;2022-12-10T05:11:06;101565.91;;;7.56;74.87
50684;BME280;36654;45.042;38.994;2022-12-10T05:13:32;101588.13;;;7.63;74.93
50684;BME280;36654;45.042;38.994;2022-12-10T05:16:01;101586.34;;;7.62;74.73
50684;BME280;36654;45.042;38.994;2022-12-10T05:18:27;101527.28;;;7.34;74.68
50684;BME280;36654;45.042;38.994;2022-12-10T05:20:52;101578.38;;;7.61;74.51
50684;BME280;36654;45.042;38.994;2022-12-10T05:23:18;101578.38;;;7.61;74.47
50684;BME280;36654;45.042;38.994;2022-12-10T05:26:14;101527.13;;;7.30;74.19
50684;BME280;36654;45.042;38.994;2022-12-10T05:28:45;101593.41;;;7.63;74.03
50684;BME280;36654;45.042;38.994;2022-12-10T05:31:13;101599.66;;;7.65;73.92
50684;BME280;36654;45.042;38.994;2022-12-10T05:33:39;101576.59;;;7.60;73.85
50684;BME280;36654;45.042;38.994;2022-12-10T05:36:05;101579.56;;;7.69;73.71
50684;BME280;36654;45.042;38.994;2022-12-10T05:38:32;101507.66;;;7.26;73.37
50684;BME280;36654;45.042;38.994;2022-12-10T05:41:26;101599.38;;;7.82;73.24
50684;BME280;36654;45.042;38.994;2022-12-10T05:43:54;101579.06;;;7.79;73.30
50684;BME280;36654;45.042;38.994;2022-12-10T05:46:23;101566.91;;;7.84;72.88
50684;BME280;36654;45.042;38.994;2022-12-10T05:48:50;101582.22;;;7.94;72.58
50684;BME280;36654;45.042;38.994;2022-12-10T05:51:18;101585.97;;;8.01;72.26
50684;BME280;36654;45.042;38.994;2022-12-10T05:53:43;101569.03;;;7.94;72.04
50684;BME280;36654;45.042;38.994;2022-12-10T05:56:15;101589.97;;;8.14;71.89
50684;BME280;36654;45.042;38.994;2022-12-10T05:58:43;101603.47;;;8.23;71.50
50684;BME280;36654;45.042;38.994;2022-12-10T06:01:14;101587.72;;;8.26;70.97
50684;BME280;36654;45.042;38.994;2022-12-10T06:03:40;101594.81;;;8.27;70.98
50684;BME280;36654;45.042;38.994;2022-12-10T06:06:07;101598.50;;;8.32;70.78
50684;BME280;36654;45.042;38.994;2022-12-10T06:08:33;101565.66;;;8.24;70.45
50684;BME280;36654;45.042;38.994;2022-12-10T06:11:07;101576.41;;;8.30;70.10
50684;BME280;36654;45.042;38.994;2022-12-10T06:13:33;101580.06;;;8.34;69.90
50684;BME280;36654;45.042;38.994;2022-12-10T06:15:59;101584.78;;;8.42;69.89
50684;BME280;36654;45.042;38.994;2022-12-10T06:18:29;101586.69;;;8.47;69.82
50684;BME280;36654;45.042;38.994;2022-12-10T06:20:54;101585.91;;;8.49;69.84
50684;BME280;36654;45.042;38.994;2022-12-10T06:23:20;101567.00;;;8.38;69.65
50684;BME280;36654;45.042;38.994;2022-12-10T06:25:46;101528.84;;;8.29;69.72
50684;BME280;36654;45.042;38.994;2022-12-10T06:28:11;101580.09;;;8.61;69.62
50684;BME280;36654;45.042;38.994;2022-12-10T06:30:37;101573.91;;;8.60;69.32
50684;BME280;36654;45.042;38.994;2022-12-10T06:33:02;101576.94;;;8.71;69.15
50684;BME280;36654;45.042;38.994;2022-12-10T06:35:28;101573.44;;;8.72;69.01
50684;BME280;36654;45.042;38.994;2022-12-10T06:37:54;101535.94;;;8.57;68.92
50684;BME280;36654;45.042;38.994;2022-12-10T06:40:20;101573.81;;;8.84;68.83
50684;BME280;36654;45.042;38.994;2022-12-10T06:42:45;101563.31;;;8.88;68.81
50684;BME280;36654;45.042;38.994;2022-12-10T06:45:11;101489.97;;;8.52;68.56
50684;BME280;36654;45.042;38.994;2022-12-10T06:47:37;101558.41;;;9.00;68.54
50684;BME280;36654;45.042;38.994;2022-12-10T06:50:03;101519.13;;;8.83;68.35
50684;BME280;36654;45.042;38.994;2022-12-10T06:52:29;101572.75;;;9.06;68.07
50684;BME280;36654;45.042;38.994;2022-12-10T06:54:54;101571.16;;;9.13;67.64
50684;BME280;36654;45.042;38.994;2022-12-10T06:57:20;101554.25;;;9.08;67.65
50684;BME280;36654;45.042;38.994;2022-12-10T06:59:46;101526.78;;;9.03;67.51
50684;BME280;36654;45.042;38.994;2022-12-10T07:02:12;101577.91;;;9.32;67.44
50684;BME280;36654;45.042;38.994;2022-12-10T07:04:38;101574.63;;;9.41;67.14
50684;BME280;36654;45.042;38.994;2022-12-10T07:07:05;101542.50;;;9.27;66.74
50684;BME280;36654;45.042;38.994;2022-12-10T07:09:32;101566.69;;;9.41;66.65
50684;BME280;36654;45.042;38.994;2022-12-10T07:11:58;101581.06;;;9.49;66.35
50684;BME280;36654;45.042;38.994;2022-12-10T07:14:23;101577.59;;;9.52;66.40
50684;BME280;36654;45.042;38.994;2022-12-10T07:16:49;101578.41;;;9.49;66.48
50684;BME280;36654;45.042;38.994;2022-12-10T07:19:15;101575.84;;;9.52;66.62
50684;BME280;36654;45.042;38.994;2022-12-10T07:21:42;101574.16;;;9.54;66.62
50684;BME280;36654;45.042;38.994;2022-12-10T07:24:14;101577.91;;;9.62;66.65
50684;BME280;36654;45.042;38.994;2022-12-10T07:26:42;101582.38;;;9.65;66.77
50684;BME280;36654;45.042;38.994;2022-12-10T07:29:18;101577.31;;;9.72;66.59
50684;BME280;36654;45.042;38.994;2022-12-10T07:31:44;101571.19;;;9.74;66.44
50684;BME280;36654;45.042;38.994;2022-12-10T07:34:10;101561.56;;;9.77;66.32
50684;BME280;36654;45.042;38.994;2022-12-10T07:36:36;101504.25;;;9.47;66.35
50684;BME280;36654;45.042;38.994;2022-12-10T07:39:05;101559.03;;;9.82;66.01
50684;BME280;36654;45.042;38.994;2022-12-10T07:41:30;101558.28;;;9.87;66.23
50684;BME280;36654;45.042;38.994;2022-12-10T07:43:56;101568.00;;;9.87;65.93
50684;BME280;36654;45.042;38.994;2022-12-10T07:46:27;101562.78;;;9.90;65.91
50684;BME280;36654;45.042;38.994;2022-12-10T07:48:54;101547.84;;;9.92;65.96
50684;BME280;36654;45.042;38.994;2022-12-10T07:51:21;101506.75;;;9.75;65.63
50684;BME280;36654;45.042;38.994;2022-12-10T07:53:48;101556.25;;;10.10;65.45
50684;BME280;36654;45.042;38.994;2022-12-10T07:56:16;101546.56;;;10.11;64.98
50684;BME280;36654;45.042;38.994;2022-12-10T07:58:43;101553.78;;;10.17;65.01
50684;BME280;36654;45.042;38.994;2022-12-10T08:01:11;101543.94;;;10.12;64.91
50684;BME280;36654;45.042;38.994;2022-12-10T08:03:37;101551.47;;;10.29;64.81
50684;BME280;36654;45.042;38.994;2022-12-10T08:06:08;101555.97;;;10.33;64.34
50684;BME280;36654;45.042;38.994;2022-12-10T08:08:35;101558.72;;;10.36;64.19
50684;BME280;36654;45.042;38.994;2022-12-10T08:11:02;101557.09;;;10.41;64.15
50684;BME280;36654;45.042;38.994;2022-12-10T08:13:28;101508.72;;;10.17;63.88
50684;BME280;36654;45.042;38.994;2022-12-10T08:16:00;101541.06;;;10.36;63.77
50684;BME280;36654;45.042;38.994;2022-12-10T08:18:26;101541.13;;;10.40;63.66
50684;BME280;36654;45.042;38.994;2022-12-10T08:20:52;101538.56;;;10.43;63.63
50684;BME280;36654;45.042;38.994;2022-12-10T08:23:18;101518.16;;;10.40;63.44
50684;BME280;36654;45.042;38.994;2022-12-10T08:25:43;101536.25;;;10.56;63.13
50684;BME280;36654;45.042;38.994;2022-12-10T08:28:09;101482.66;;;10.32;62.93
50684;BME280;36654;45.042;38.994;2022-12-10T08:30:35;101525.78;;;10.63;62.81
50684;BME280;36654;45.042;38.994;2022-12-10T08:33:00;101536.53;;;10.69;62.84
50684;BME280;36654;45.042;38.994;2022-12-10T08:35:26;101495.47;;;10.51;62.67
50684;BME280;36654;45.042;38.994;2022-12-10T08:37:51;101533.25;;;10.80;62.52
50684;BME280;36654;45.042;38.994;2022-12-10T08:40:17;101529.78;;;10.83;62.45
50684;BME280;36654;45.042;38.994;2022-12-10T08:42:43;101472.63;;;10.56;62.43
50684;BME280;36654;45.042;38.994;2022-12-10T08:45:09;101516.63;;;10.86;62.46
50684;BME280;36654;45.042;38.994;2022-12-10T08:47:34;101509.66;;;10.91;62.41
50684;BME280;36654;45.042;38.994;2022-12-10T08:50:00;101520.53;;;11.04;62.25
50684;BME280;36654;45.042;38.994;2022-12-10T08:52:26;101473.22;;;10.84;62.25
50684;BME280;36654;45.042;38.994;2022-12-10T08:54:54;101510.34;;;11.25;61.89
50684;BME280;36654;45.042;38.994;2022-12-10T08:57:20;101499.19;;;11.41;61.77
50684;BME280;36654;45.042;38.994;2022-12-10T08:59:45;101501.25;;;11.58;61.29
50684;BME280;36654;45.042;38.994;2022-12-10T09:02:11;101498.84;;;11.70;60.72
50684;BME280;36654;45.042;38.994;2022-12-10T09:04:37;101492.88;;;11.82;60.40
50684;BME280;36654;45.042;38.994;2022-12-10T09:07:04;101460.84;;;11.74;60.33
50684;BME280;36654;45.042;38.994;2022-12-10T09:09:31;101490.66;;;12.05;60.03
50684;BME280;36654;45.042;38.994;2022-12-10T09:11:57;101475.63;;;12.07;59.41
50684;BME280;36654;45.042;38.994;2022-12-10T09:14:23;101458.88;;;12.13;59.32
50684;BME280;36654;45.042;38.994;2022-12-10T09:16:51;101472.44;;;12.29;59.06
50684;BME280;36654;45.042;38.994;2022-12-10T09:19:17;101426.09;;;12.12;58.85
50684;BME280;36654;45.042;38.994;2022-12-10T09:21:42;101439.53;;;12.23;58.58
50684;BME280;36654;45.042;38.994;2022-12-10T09:24:09;101463.75;;;12.40;58.39
50684;BME280;36654;45.042;38.994;2022-12-10T09:26:34;101436.03;;;12.25;58.52
50684;BME280;36654;45.042;38.994;2022-12-10T09:29:00;101432.41;;;12.19;58.53
50684;BME280;36654;45.042;38.994;2022-12-10T09:31:27;101454.84;;;12.38;58.58
50684;BME280;36654;45.042;38.994;2022-12-10T09:33:53;101442.50;;;12.41;58.50
50684;BME280;36654;45.042;38.994;2022-12-10T09:36:20;101438.94;;;12.39;58.35
50684;BME280;36654;45.042;38.994;2022-12-10T09:38:47;101444.38;;;12.50;58.27
50684;BME280;36654;45.042;38.994;2022-12-10T09:44:05;101439.25;;;12.62;57.71
50684;BME280;36654;45.042;38.994;2022-12-10T09:46:52;101426.00;;;12.67;57.68
50684;BME280;36654;45.042;38.994;2022-12-10T09:51:50;101421.72;;;12.77;57.63
50684;BME280;36654;45.042;38.994;2022-12-10T09:54:29;101407.50;;;12.74;57.37
50684;BME280;36654;45.042;38.994;2022-12-10T09:56:57;101411.13;;;12.83;57.01
50684;BME280;36654;45.042;38.994;2022-12-10T09:59:30;101411.28;;;12.95;56.81
50684;BME280;36654;45.042;38.994;2022-12-10T10:04:47;101412.38;;;13.11;56.40
50684;BME280;36654;45.042;38.994;2022-12-10T10:07:50;101410.72;;;13.21;55.89
50684;BME280;36654;45.042;38.994;2022-12-10T10:10:29;101403.75;;;13.29;55.20
50684;BME280;36654;45.042;38.994;2022-12-10T10:18:46;101394.13;;;13.43;54.71
50684;BME280;36654;45.042;38.994;2022-12-10T10:21:41;101393.28;;;13.50;54.30
50684;BME280;36654;45.042;38.994;2022-12-10T10:24:13;101385.28;;;13.50;54.25
50684;BME280;36654;45.042;38.994;2022-12-10T10:26:40;101371.97;;;13.50;54.13
50684;BME280;36654;45.042;38.994;2022-12-10T10:29:08;101380.06;;;13.59;54.22
50684;BME280;36654;45.042;38.994;2022-12-10T10:31:39;101379.22;;;13.64;54.19
50684;BME280;36654;45.042;38.994;2022-12-10T10:34:20;101383.72;;;13.71;54.22
50684;BME280;36654;45.042;38.994;2022-12-10T10:36:47;101364.06;;;13.59;54.04
50684;BME280;36654;45.042;38.994;2022-12-10T10:41:50;101371.31;;;13.73;54.28
50684;BME280;36654;45.042;38.994;2022-12-10T10:44:22;101389.13;;;13.80;54.28
50684;BME280;36654;45.042;38.994;2022-12-10T10:46:51;101379.31;;;13.76;54.41
50684;BME280;36654;45.042;38.994;2022-12-10T10:49:31;101384.72;;;13.85;54.33
50684;BME280;36654;45.042;38.994;2022-12-10T10:52:05;101376.69;;;13.82;54.25
50684;BME280;36654;45.042;38.994;2022-12-10T10:54:34;101378.53;;;13.89;54.14
50684;BME280;36654;45.042;38.994;2022-12-10T10:59:37;101356.31;;;13.89;54.48
50684;BME280;36654;45.042;38.994;2022-12-10T11:02:27;101362.59;;;13.97;54.55
50684;BME280;36654;45.042;38.994;2022-12-10T11:04:55;101366.13;;;13.91;54.55
50684;BME280;36654;45.042;38.994;2022-12-10T11:07:39;101356.31;;;13.90;54.83
50684;BME280;36654;45.042;38.994;2022-12-10T11:10:25;101348.28;;;13.82;54.89
50684;BME280;36654;45.042;38.994;2022-12-10T11:15:37;101354.56;;;13.89;55.17
50684;BME280;36654;45.042;38.994;2022-12-10T11:18:33;101351.91;;;13.92;55.14
50684;BME280;36654;45.042;38.994;2022-12-10T11:21:03;101350.16;;;13.97;55.10
50684;BME280;36654;45.042;38.994;2022-12-10T11:23:38;101349.28;;;14.00;54.98
50684;BME280;36654;45.042;38.994;2022-12-10T11:26:17;101346.66;;;14.05;55.21
50684;BME280;36654;45.042;38.994;2022-12-10T11:38:09;101339.63;;;14.16;54.78
50684;BME280;36654;45.042;38.994;2022-12-10T11:41:18;101340.53;;;14.19;54.69
50684;BME280;36654;45.042;38.994;2022-12-10T11:46:48;101328.13;;;14.26;54.69
50684;BME280;36654;45.042;38.994;2022-12-10T11:57:41;101309.56;;;14.43;53.90
50684;BME280;36654;45.042;38.994;2022-12-10T12:00:19;101313.09;;;14.43;53.92
50684;BME280;36654;45.042;38.994;2022-12-10T12:09:01;101312.22;;;14.49;54.23
50684;BME280;36654;45.042;38.994;2022-12-10T12:17:10;101301.66;;;14.61;53.71
50684;BME280;36654;45.042;38.994;2022-12-10T12:19:40;101295.44;;;14.64;53.84
50684;BME280;36654;45.042;38.994;2022-12-10T12:22:37;101300.75;;;14.64;53.11
50684;BME280;36654;45.042;38.994;2022-12-10T12:25:10;101308.81;;;14.73;52.40
50684;BME280;36654;45.042;38.994;2022-12-10T12:27:46;101291.91;;;14.74;51.81
50684;BME280;36654;45.042;38.994;2022-12-10T12:30:20;101260.72;;;14.59;51.58
50684;BME280;36654;45.042;38.994;2022-12-10T12:33:04;101300.81;;;14.84;51.47
50684;BME280;36654;45.042;38.994;2022-12-10T12:35:55;101312.38;;;14.84;51.39
50684;BME280;36654;45.042;38.994;2022-12-10T12:40:52;101311.47;;;14.82;51.09
50684;BME280;36654;45.042;38.994;2022-12-10T12:43:28;101297.28;;;14.80;50.85
50684;BME280;36654;45.042;38.994;2022-12-10T12:45:56;101311.47;;;14.82;50.85
50684;BME280;36654;45.042;38.994;2022-12-10T12:48:50;101312.41;;;14.83;50.33
50684;BME280;36654;45.042;38.994;2022-12-10T12:51:38;101315.97;;;14.86;50.53
50684;BME280;36654;45.042;38.994;2022-12-10T12:54:05;101300.81;;;14.73;50.65
50684;BME280;36654;45.042;38.994;2022-12-10T13:01:57;101315.06;;;14.75;50.79
50684;BME280;36654;45.042;38.994;2022-12-10T13:04:25;101268.63;;;14.42;50.57
50684;BME280;36654;45.042;38.994;2022-12-10T13:09:45;101313.19;;;14.56;51.63
50684;BME280;36654;45.042;38.994;2022-12-10T13:12:30;101318.47;;;14.50;51.63
50684;BME280;36654;45.042;38.994;2022-12-10T13:17:31;101307.72;;;14.37;52.38
50684;BME280;36654;45.042;38.994;2022-12-10T13:23:00;101308.53;;;14.22;52.75
50684;BME280;36654;45.042;38.994;2022-12-10T13:26:02;101320.06;;;14.14;52.99
50684;BME280;36654;45.042;38.994;2022-12-10T13:28:47;101320.03;;;14.06;53.16
50684;BME280;36654;45.042;38.994;2022-12-10T13:36:35;101316.31;;;13.87;53.87
50684;BME280;36654;45.042;38.994;2022-12-10T13:41:30;101315.41;;;13.82;54.10
50684;BME280;36654;45.042;38.994;2022-12-10T13:47:43;101320.72;;;13.76;54.39
50684;BME280;36654;45.042;38.994;2022-12-10T13:50:18;101323.38;;;13.76;54.39
50684;BME280;36654;45.042;38.994;2022-12-10T13:55:53;101319.72;;;13.68;54.69
50684;BME280;36654;45.042;38.994;2022-12-10T13:58:37;101325.06;;;13.68;54.95
50684;BME280;36654;45.042;38.994;2022-12-10T14:01:21;101323.25;;;13.61;55.03
50684;BME280;36654;45.042;38.994;2022-12-10T14:06:24;101316.03;;;13.50;55.52
50684;BME280;36654;45.042;38.994;2022-12-10T14:09:11;101315.16;;;13.50;55.69
50684;BME280;36654;45.042;38.994;2022-12-10T14:11:42;101312.44;;;13.45;55.95
50684;BME280;36654;45.042;38.994;2022-12-10T14:14:14;101311.53;;;13.42;55.22
50684;BME280;36654;45.042;38.994;2022-12-10T14:16:41;101313.31;;;13.41;54.73
50684;BME280;36654;45.042;38.994;2022-12-10T14:19:12;101320.41;;;13.42;54.22
50684;BME280;36654;45.042;38.994;2022-12-10T14:21:41;101307.09;;;13.39;54.14
50684;BME280;36654;45.042;38.994;2022-12-10T14:24:32;101299.84;;;13.26;53.82
50684;BME280;36654;45.042;38.994;2022-12-10T14:27:46;101295.38;;;13.23;53.69
50684;BME280;36654;45.042;38.994;2022-12-10T14:29:52;101239.13;;;12.88;53.53
50684;BME280;36654;45.042;38.994;2022-12-10T14:32:23;101299.75;;;13.20;53.61
50684;BME280;36654;45.042;38.994;2022-12-10T14:34:58;101290.84;;;13.14;53.25
50684;BME280;36654;45.042;38.994;2022-12-10T14:37:28;101315.75;;;13.23;53.32